createdAt,value
2017-05-12T00:00:38.354Z,7.78
2017-05-12T00:03:07.421Z,6.98
2017-05-12T00:05:36.442Z,8.12
2017-05-12T00:11:07.094Z,7.88
2017-05-12T00:13:39.874Z,7.48
2017-05-12T00:16:08.970Z,7.50
2017-05-12T00:18:37.953Z,6.96
2017-05-12T00:21:06.937Z,7.52
2017-05-12T00:23:39.857Z,8.84
2017-05-12T00:26:08.940Z,7.38
2017-05-12T00:28:37.921Z,10.60
2017-05-12T00:31:07.013Z,7.90
2017-05-12T00:33:35.986Z,6.50
2017-05-12T00:36:05.010Z,7.26
2017-05-12T00:38:39.803Z,8.84
2017-05-12T00:41:09.537Z,7.72
2017-05-12T00:43:38.505Z,7.88
2017-05-12T00:46:08.441Z,7.74
2017-05-12T00:48:37.443Z,7.18
2017-05-12T00:51:06.439Z,7.64
2017-05-12T00:53:35.534Z,9.54
2017-05-12T00:56:04.613Z,7.56
2017-05-12T00:58:33.585Z,7.10
2017-05-12T01:01:03.336Z,9.24
2017-05-12T01:03:39.340Z,8.88
2017-05-12T01:06:09.097Z,7.70
2017-05-12T01:08:38.181Z,7.16
2017-05-12T01:11:07.157Z,8.78
2017-05-12T01:13:36.230Z,7.82
2017-05-12T01:16:05.949Z,7.42
2017-05-12T01:18:39.332Z,7.36
2017-05-12T01:21:09.077Z,7.96
2017-05-12T01:23:38.078Z,11.52
2017-05-12T01:26:07.169Z,7.38
2017-05-12T01:28:36.132Z,8.76
2017-05-12T01:31:05.920Z,7.40
2017-05-12T01:33:38.445Z,7.96
2017-05-12T01:36:07.587Z,7.32
2017-05-12T01:38:36.641Z,8.34
2017-05-12T01:41:05.731Z,7.34
2017-05-12T01:43:34.722Z,7.64
2017-05-12T01:49:05.368Z,7.52
2017-05-12T01:51:34.374Z,7.42
2017-05-12T01:54:03.469Z,7.28
2017-05-12T01:56:32.480Z,9.20
2017-05-12T01:59:01.554Z,7.94
2017-05-12T02:01:38.834Z,7.78
2017-05-12T02:04:07.812Z,7.34
2017-05-12T02:06:36.789Z,7.12
2017-05-12T02:09:06.600Z,7.90
2017-05-12T02:11:36.308Z,7.36
2017-05-12T02:14:36.495Z,7.00
2017-05-12T02:17:05.562Z,7.68
2017-05-12T02:19:34.534Z,6.78
2017-05-12T02:22:03.639Z,7.76
2017-05-12T02:24:33.353Z,8.14
2017-05-12T02:27:02.330Z,7.14
2017-05-12T02:29:38.302Z,7.58
2017-05-12T02:32:07.298Z,8.00
2017-05-12T02:34:36.287Z,6.56
2017-05-12T02:37:05.383Z,8.82
2017-05-12T02:39:34.357Z,7.62
2017-05-12T02:45:04.519Z,8.86
2017-05-12T02:47:33.489Z,8.76
2017-05-12T02:50:02.461Z,7.86
2017-05-12T02:52:32.305Z,7.96
2017-05-12T02:55:01.309Z,7.08
2017-05-12T02:57:38.789Z,8.34
2017-05-12T03:00:07.790Z,7.50
2017-05-12T03:02:36.770Z,9.50
2017-05-12T03:05:06.489Z,7.76
2017-05-12T03:07:35.481Z,7.90
2017-05-12T03:10:04.469Z,7.54
2017-05-12T03:12:33.578Z,6.86
2017-05-12T03:15:02.567Z,8.30
2017-05-12T03:17:31.649Z,8.60
2017-05-12T03:20:01.256Z,7.48
2017-05-12T03:22:30.259Z,8.20
2017-05-12T03:24:59.250Z,8.16
2017-05-12T03:27:28.341Z,7.74
2017-05-12T03:29:57.339Z,7.72
2017-05-12T03:32:26.321Z,8.38
2017-05-12T03:34:55.424Z,7.86
2017-05-12T03:37:24.404Z,7.50
2017-05-12T03:39:53.381Z,8.52
2017-05-12T03:42:22.405Z,7.70
2017-05-12T03:44:51.494Z,8.64
2017-05-12T03:47:20.474Z,8.04
2017-05-12T03:49:49.585Z,7.70
2017-05-12T03:52:18.569Z,7.52
2017-05-12T03:54:47.551Z,8.24
2017-05-12T03:57:16.653Z,7.58
2017-05-12T03:59:45.667Z,8.30
2017-05-12T04:02:14.650Z,7.80
2017-05-12T04:04:43.741Z,7.48
2017-05-12T04:07:38.900Z,7.44
2017-05-12T04:10:07.938Z,8.42
2017-05-12T04:12:36.929Z,7.70
2017-05-12T04:15:05.922Z,8.06
2017-05-12T04:17:35.025Z,7.86
2017-05-12T04:20:04.003Z,8.22
2017-05-12T04:22:33.002Z,7.76
2017-05-12T04:25:02.101Z,7.84
2017-05-12T04:27:31.082Z,8.58
2017-05-12T04:30:00.075Z,7.22
2017-05-12T04:32:29.137Z,9.30
2017-05-12T04:38:00.246Z,8.06
2017-05-12T04:40:29.337Z,7.64
2017-05-12T04:42:58.327Z,8.24
2017-05-12T04:45:27.375Z,12.60
2017-05-12T04:50:57.386Z,11.04
2017-05-12T04:53:26.371Z,8.52
2017-05-12T04:55:55.447Z,8.10
2017-05-12T04:58:24.465Z,11.00
2017-05-12T05:00:53.431Z,8.38
2017-05-12T05:03:39.409Z,11.00
2017-05-12T05:06:08.404Z,29.36
2017-05-12T05:08:37.398Z,72.34
2017-05-12T05:11:06.423Z,77.56
2017-05-12T05:13:35.893Z,80.84
2017-05-12T05:16:04.891Z,67.94
2017-05-12T05:18:33.991Z,76.14
2017-05-12T05:21:03.514Z,64.98
2017-05-12T05:23:32.586Z,64.70
2017-05-12T05:26:01.606Z,59.60
2017-05-12T05:28:30.580Z,53.74
2017-05-12T05:30:59.575Z,48.80
2017-05-12T05:33:29.378Z,48.52
2017-05-12T05:35:58.358Z,35.68
2017-05-12T05:38:27.352Z,27.86
2017-05-12T05:40:56.369Z,22.68
2017-05-12T05:43:25.345Z,21.48
2017-05-12T05:45:54.330Z,20.44
2017-05-12T05:48:23.435Z,21.30
2017-05-12T05:50:52.416Z,20.60
2017-05-12T05:53:21.410Z,20.00
2017-05-12T05:55:50.430Z,17.00
2017-05-12T05:58:19.507Z,17.92
2017-05-12T06:00:48.490Z,16.68
2017-05-12T06:03:17.515Z,16.80
2017-05-12T06:05:46.586Z,18.02
2017-05-12T06:08:15.678Z,18.02
2017-05-12T06:10:44.756Z,17.42
2017-05-12T06:13:37.813Z,19.60
2017-05-12T06:16:06.847Z,16.44
2017-05-12T06:18:39.185Z,18.64
2017-05-12T06:27:03.396Z,17.44
2017-05-12T06:29:38.774Z,17.22
2017-05-12T06:32:38.393Z,18.04
2017-05-12T06:40:57.656Z,17.28
2017-05-12T06:43:39.552Z,16.30
2017-05-12T06:46:38.693Z,16.20
2017-05-12T06:49:07.744Z,16.64
2017-05-12T06:51:38.442Z,17.92
2017-05-12T06:54:37.063Z,19.02
2017-05-12T07:00:07.821Z,17.12
2017-05-12T07:02:38.661Z,16.82
2017-05-12T07:05:37.914Z,18.86
2017-05-12T07:08:07.674Z,16.66
2017-05-12T07:10:38.609Z,20.12
2017-05-12T07:13:07.694Z,15.78
2017-05-12T07:15:36.699Z,17.56
2017-05-12T07:21:07.652Z,16.34
2017-05-12T07:23:36.844Z,15.26
2017-05-12T07:26:05.830Z,14.96
2017-05-12T07:28:34.872Z,16.14
2017-05-12T07:31:03.933Z,16.60
2017-05-12T07:33:33.020Z,16.12
2017-05-12T07:36:02.037Z,15.40
2017-05-12T07:38:38.787Z,16.84
2017-05-12T07:41:07.990Z,15.24
2017-05-12T07:43:36.974Z,14.80
2017-05-12T07:46:05.957Z,16.36
2017-05-12T07:48:34.997Z,16.26
2017-05-12T07:51:03.983Z,17.16
2017-05-12T07:53:33.008Z,16.48
2017-05-12T07:56:02.870Z,15.52
2017-05-12T07:58:31.848Z,15.68
2017-05-12T08:01:00.835Z,17.10
2017-05-12T08:03:29.883Z,15.98
2017-05-12T08:05:58.938Z,16.68
2017-05-12T08:08:28.025Z,14.66
2017-05-12T08:10:57.121Z,16.38
2017-05-12T08:13:26.121Z,16.34
2017-05-12T08:18:56.984Z,14.28
2017-05-12T08:21:26.056Z,15.90
2017-05-12T08:23:55.265Z,15.16
2017-05-12T08:26:24.362Z,17.00
2017-05-12T08:28:53.457Z,13.42
2017-05-12T08:31:22.532Z,18.14
2017-05-12T08:36:52.917Z,15.34
2017-05-12T08:39:22.074Z,16.04
2017-05-12T08:44:42.309Z,16.20
2017-05-12T08:47:36.898Z,15.72
2017-05-12T08:50:05.977Z,14.92
2017-05-12T08:52:38.858Z,14.86
2017-05-12T08:55:07.957Z,14.28
2017-05-12T08:57:36.961Z,15.52
2017-05-12T09:00:06.051Z,15.18
2017-05-12T09:02:38.835Z,14.24
2017-05-12T09:05:07.826Z,16.28
2017-05-12T09:07:36.818Z,14.40
2017-05-12T09:10:05.906Z,15.70
2017-05-12T09:12:34.935Z,13.86
2017-05-12T09:18:05.661Z,14.28
2017-05-12T09:20:34.750Z,13.32
2017-05-12T09:23:03.832Z,14.10
2017-05-12T09:25:33.137Z,13.14
2017-05-12T09:31:04.514Z,13.46
2017-05-12T09:33:33.604Z,14.14
2017-05-12T09:36:02.675Z,13.88
2017-05-12T09:38:31.798Z,13.04
2017-05-12T09:41:00.895Z,13.88
2017-05-12T09:43:30.810Z,14.88
2017-05-12T09:45:59.837Z,13.16
2017-05-12T09:48:28.890Z,14.22
2017-05-12T09:50:57.985Z,15.16
2017-05-12T09:53:27.076Z,13.34
2017-05-12T09:55:56.053Z,14.58
2017-05-12T09:58:37.792Z,17.58
2017-05-12T10:01:06.819Z,13.58
2017-05-12T10:03:36.570Z,14.22
2017-05-12T10:06:05.662Z,16.18
2017-05-12T10:08:34.758Z,15.62
2017-05-12T10:11:03.855Z,13.04
2017-05-12T10:13:32.851Z,16.64
2017-05-12T10:19:02.842Z,12.62
2017-05-12T10:21:39.292Z,14.00
2017-05-12T10:24:36.841Z,14.52
2017-05-12T10:27:05.827Z,14.28
2017-05-12T10:29:34.815Z,12.34
2017-05-12T10:32:03.840Z,11.92
2017-05-12T10:34:33.590Z,13.32
2017-05-12T10:37:02.690Z,11.48
2017-05-12T10:39:38.155Z,12.56
2017-05-12T10:42:36.909Z,14.06
2017-05-12T10:45:05.917Z,14.20
2017-05-12T10:47:35.009Z,13.76
2017-05-12T10:50:04.109Z,13.98
2017-05-12T10:52:40.456Z,14.02
2017-05-12T10:55:09.566Z,12.12
2017-05-12T10:57:38.657Z,12.60
2017-05-12T11:00:07.633Z,13.08
2017-05-12T11:02:39.614Z,12.20
2017-05-12T11:05:09.010Z,12.22
2017-05-12T11:07:38.115Z,15.84
2017-05-12T11:10:07.099Z,12.52
2017-05-12T11:12:36.202Z,12.92
2017-05-12T11:15:05.294Z,12.04
2017-05-12T11:17:34.337Z,12.58
2017-05-12T11:20:04.094Z,10.32
2017-05-12T11:22:39.628Z,11.82
2017-05-12T11:25:08.639Z,10.20
2017-05-12T11:27:37.726Z,11.88
2017-05-12T11:30:06.817Z,10.80
2017-05-12T11:32:35.813Z,10.22
2017-05-12T11:35:04.806Z,10.04
2017-05-12T11:37:33.893Z,9.78
2017-05-12T11:43:04.753Z,10.46
2017-05-12T11:45:33.749Z,10.14
2017-05-12T11:48:02.753Z,9.60
2017-05-12T11:50:38.579Z,9.36
2017-05-12T11:53:07.694Z,10.76
2017-05-12T11:55:40.161Z,8.82
2017-05-12T11:58:09.262Z,10.38
2017-05-12T12:00:38.518Z,8.14
2017-05-12T12:03:08.228Z,9.72
2017-05-12T12:05:38.014Z,8.56
2017-05-12T12:08:37.017Z,9.22
2017-05-12T12:11:29.306Z,7.68
2017-05-12T12:13:59.403Z,7.60
2017-05-12T12:16:28.413Z,8.10
2017-05-12T12:18:57.518Z,7.32
2017-05-12T12:21:26.504Z,8.66
2017-05-12T12:23:55.601Z,7.70
2017-05-12T12:26:32.120Z,7.84
2017-05-12T12:29:01.404Z,7.06
2017-05-12T12:31:31.156Z,16.94
2017-05-12T12:34:00.575Z,8.28
2017-05-12T12:36:30.956Z,7.72
2017-05-12T12:39:02.262Z,8.68
2017-05-12T12:41:31.491Z,8.64
2017-05-12T12:44:00.545Z,9.18
2017-05-12T12:46:30.585Z,9.74
2017-05-12T12:52:00.703Z,9.50
2017-05-12T12:54:29.789Z,9.86
2017-05-12T12:56:58.770Z,11.12
2017-05-12T12:59:41.289Z,10.04
2017-05-12T13:02:10.589Z,10.30
2017-05-12T13:04:40.305Z,8.84
2017-05-12T13:07:09.702Z,10.60
2017-05-12T13:09:38.906Z,10.70
2017-05-12T13:12:07.887Z,11.90
2017-05-12T13:14:37.136Z,9.56
2017-05-12T13:17:06.189Z,10.74
2017-05-12T13:19:38.814Z,9.32
2017-05-12T13:22:07.829Z,8.52
2017-05-12T13:24:37.570Z,10.80
2017-05-12T13:30:07.438Z,7.24
2017-05-12T13:32:36.418Z,7.60
2017-05-12T13:35:05.398Z,7.46
2017-05-12T13:37:34.426Z,6.56
2017-05-12T13:40:03.478Z,7.48
2017-05-12T13:42:40.564Z,7.42
2017-05-12T13:45:09.676Z,6.48
2017-05-12T13:47:38.669Z,6.72
2017-05-12T13:50:07.691Z,6.36
2017-05-12T13:52:37.470Z,9.88
2017-05-12T13:55:07.365Z,5.92
2017-05-12T13:57:36.463Z,8.90
2017-05-12T14:00:05.554Z,6.26
2017-05-12T14:02:41.129Z,5.50
2017-05-12T14:05:10.189Z,6.38
2017-05-12T14:07:39.213Z,4.68
2017-05-12T14:10:08.386Z,8.98
2017-05-12T14:12:37.414Z,5.20
2017-05-12T14:18:08.669Z,5.70
2017-05-12T14:20:37.660Z,4.84
2017-05-12T14:23:07.445Z,6.42
2017-05-12T14:25:37.447Z,5.04
2017-05-12T14:28:06.469Z,5.38
2017-05-12T14:30:38.712Z,5.06
2017-05-12T14:33:07.680Z,6.90
2017-05-12T14:35:37.421Z,5.36
2017-05-12T14:41:12.889Z,6.32
2017-05-12T14:43:41.869Z,5.74
2017-05-12T14:46:10.870Z,5.78
2017-05-12T14:48:39.963Z,5.26
2017-05-12T14:51:29.434Z,4.98
2017-05-12T14:53:58.535Z,6.60
2017-05-12T14:56:27.519Z,6.00
2017-05-12T14:58:56.513Z,4.38
2017-05-12T15:01:25.943Z,5.72
2017-05-12T15:03:54.918Z,5.34
2017-05-12T15:06:38.652Z,6.40
2017-05-12T15:09:37.448Z,6.24
2017-05-12T15:12:06.475Z,6.64
2017-05-12T15:14:35.530Z,5.46
2017-05-12T15:17:04.516Z,5.44
2017-05-12T15:19:40.461Z,7.00
2017-05-12T15:22:09.466Z,6.78
2017-05-12T15:24:38.462Z,5.76
2017-05-12T15:27:38.209Z,6.82
2017-05-12T15:30:07.185Z,6.44
2017-05-12T15:32:36.257Z,5.84
2017-05-12T15:38:06.774Z,5.56
2017-05-12T15:40:36.489Z,5.50
2017-05-12T15:46:06.853Z,5.90
2017-05-12T15:48:39.538Z,5.78
2017-05-12T15:51:29.427Z,5.24
2017-05-12T15:53:58.406Z,5.12
2017-05-12T15:56:27.406Z,5.06
2017-05-12T15:58:56.497Z,4.98
2017-05-12T16:04:04.391Z,11.02
2017-05-12T16:36:02.132Z,9.10
2017-05-12T16:38:31.876Z,13.34
2017-05-12T16:41:29.292Z,6.12
2017-05-12T16:53:25.172Z,5.70
2017-05-12T16:55:54.920Z,5.66
2017-05-12T16:58:38.194Z,6.32
2017-05-12T17:01:07.176Z,9.78
2017-05-12T17:03:36.275Z,10.86
2017-05-12T17:12:17.089Z,8.18
2017-05-12T17:14:46.072Z,7.28
2017-05-12T17:17:37.871Z,6.44
2017-05-12T17:20:37.147Z,7.40
2017-05-12T17:23:06.150Z,7.16
2017-05-12T17:25:38.857Z,7.72
2017-05-12T17:28:07.838Z,6.52
2017-05-12T17:30:36.815Z,9.86
2017-05-12T17:33:06.752Z,6.50
2017-05-12T17:35:35.739Z,9.06
2017-05-12T17:41:06.367Z,12.04
2017-05-12T17:43:35.385Z,11.52
2017-05-12T17:52:38.031Z,14.94
2017-05-12T17:58:37.347Z,14.90
2017-05-12T18:01:25.679Z,20.56
2017-05-12T18:06:55.678Z,12.32
2017-05-12T18:12:38.595Z,10.16
2017-05-12T18:15:08.315Z,8.50
2017-05-12T18:17:39.721Z,11.14
2017-05-12T18:23:10.107Z,9.72
2017-05-12T18:25:39.821Z,9.54
2017-05-12T18:28:37.322Z,8.08
2017-05-12T18:31:06.321Z,11.82
2017-05-12T18:33:39.099Z,7.04
2017-05-12T18:36:38.387Z,7.50
2017-05-12T18:39:07.377Z,9.42
2017-05-12T18:41:36.357Z,8.74
2017-05-12T18:56:27.483Z,11.96
2017-05-12T19:02:04.560Z,9.22
2017-05-12T19:04:39.486Z,12.98
2017-05-12T19:10:39.086Z,11.66
2017-05-12T19:13:36.164Z,12.90
2017-05-12T19:25:37.119Z,12.00
2017-05-12T19:28:22.605Z,13.34
2017-05-12T19:37:14.898Z,15.50
2017-05-12T19:39:43.883Z,10.54
2017-05-12T19:42:28.477Z,11.26
2017-05-12T19:57:25.935Z,9.26
2017-05-12T20:12:36.386Z,11.10
2017-05-12T20:21:29.807Z,7.96
2017-05-12T20:23:59.532Z,9.46
2017-05-12T20:26:29.290Z,10.60
2017-05-12T20:28:58.315Z,11.24
2017-05-12T20:31:27.299Z,9.46
2017-05-12T20:33:56.348Z,10.80
2017-05-12T20:36:25.348Z,10.10
2017-05-12T20:38:54.330Z,9.76
2017-05-12T20:41:38.640Z,11.40
2017-05-12T20:44:08.370Z,11.26
2017-05-12T20:46:37.364Z,15.52
2017-05-12T20:49:06.401Z,15.60
2017-05-12T20:51:35.378Z,14.46
2017-05-12T20:54:04.368Z,11.00
2017-05-12T20:56:33.562Z,15.82
2017-05-12T20:59:02.565Z,13.10
2017-05-12T21:01:31.553Z,12.38
2017-05-12T21:04:00.601Z,12.22
2017-05-12T21:06:30.332Z,12.42
2017-05-12T21:12:00.934Z,12.08
2017-05-12T21:14:29.927Z,11.22
2017-05-12T21:16:58.919Z,13.34
2017-05-12T21:19:27.964Z,12.52
2017-05-12T21:21:56.954Z,11.76
2017-05-12T21:24:25.944Z,12.38
2017-05-12T21:26:55.064Z,12.98
2017-05-12T21:29:24.059Z,11.10
2017-05-12T21:31:53.050Z,11.34
2017-05-12T21:34:22.241Z,12.76
2017-05-12T21:39:47.695Z,12.70
2017-05-12T21:42:16.690Z,12.48
2017-05-12T21:44:45.684Z,12.92
2017-05-12T21:47:14.962Z,12.60
2017-05-12T21:49:43.941Z,14.20
2017-05-12T21:52:12.927Z,12.36
2017-05-12T21:54:41.962Z,13.30
2017-05-12T21:57:10.955Z,14.40
2017-05-12T21:59:40.597Z,14.42
2017-05-12T22:02:10.427Z,14.48
2017-05-12T22:04:39.405Z,14.22
2017-05-12T22:07:09.126Z,13.54
2017-05-12T22:09:38.167Z,14.48
2017-05-12T22:12:07.145Z,16.94
2017-05-12T22:14:36.412Z,13.92
2017-05-12T22:17:05.446Z,12.98
2017-05-12T22:19:34.434Z,15.14
2017-05-12T22:22:03.414Z,13.42
2017-05-12T22:24:32.429Z,13.78
2017-05-12T22:27:01.415Z,14.48
2017-05-12T22:29:30.402Z,14.28
2017-05-12T22:31:59.488Z,15.88
2017-05-12T22:34:28.486Z,12.32
2017-05-12T22:36:57.569Z,14.84
2017-05-12T22:39:26.602Z,15.34
2017-05-12T22:41:56.350Z,13.36
2017-05-12T22:44:25.674Z,12.26
2017-05-12T22:49:55.994Z,15.44
2017-05-12T22:52:24.983Z,13.98
2017-05-12T22:54:53.974Z,14.08
2017-05-12T22:57:23.010Z,14.92
2017-05-12T22:59:52.001Z,12.50
2017-05-12T23:02:20.992Z,13.12
2017-05-12T23:04:50.013Z,14.22
2017-05-12T23:07:19.008Z,12.82
2017-05-12T23:09:47.989Z,13.62
2017-05-12T23:12:17.006Z,9.86
2017-05-12T23:17:39.536Z,16.04
2017-05-12T23:20:08.524Z,15.46
2017-05-12T23:22:37.512Z,16.86
2017-05-12T23:25:06.521Z,15.42
2017-05-12T23:27:41.359Z,16.12
2017-05-12T23:30:10.394Z,15.40
2017-05-12T23:32:39.370Z,14.94
2017-05-12T23:35:08.362Z,16.06
2017-05-12T23:37:37.389Z,17.70
2017-05-12T23:40:06.380Z,16.28
2017-05-12T23:42:35.362Z,16.42
2017-05-12T23:45:04.464Z,15.60
2017-05-12T23:47:33.454Z,16.68
2017-05-12T23:50:02.433Z,15.96
2017-05-12T23:52:39.431Z,15.74
2017-05-12T23:55:38.014Z,14.64
